Time;durP1;ratioP1;P1;durP2;ratioP2;P2;SDS_P1;SDS_P2;PMS_P1;PMS_P2;Temp;Humidity;BMP_temperature;BMP_pressure;BME280_temperature;BME280_humidity;BME280_pressure;Samples;Min_cycle;Max_cycle;Signal;HPM_P1;HPM_P2
2023/11/16 00:01:49;;;;;;;;;;;;;;;20.21;41.39;95932.84;10477733;28;2505;-52
2023/11/16 00:06:49;;;;;;;;;;;;;;;20.17;41.37;95931.78;10470232;28;2699;-51
2023/11/16 00:11:49;;;;;;;;;;;;;;;20.12;41.58;95937.81;10464785;28;2708;-49
2023/11/16 00:16:50;;;;;;;;;;;;;;;20.09;41.75;95932.31;10477653;28;5376;-50
2023/11/16 00:21:50;;;;;;;;;;;;;;;20.06;41.66;95927.56;10475780;28;2593;-48
2023/11/16 00:26:51;;;;;;;;;;;;;;;20.03;41.67;95923.63;10454418;28;2629;-51
2023/11/16 00:31:51;;;;;;;;;;;;;;;20.00;41.74;95928.63;10472824;28;2566;-48
2023/11/16 00:36:52;;;;;;;;;;;;;;;19.97;41.61;95923.91;10467197;28;2618;-49
2023/11/16 00:41:53;;;;;;;;;;;;;;;19.96;41.76;95922.31;10467702;28;2569;-48
2023/11/16 00:46:54;;;;;;;;;;;;;;;19.93;41.78;95922.84;10473973;28;2617;-48
2023/11/16 00:51:54;;;;;;;;;;;;;;;19.90;41.73;95923.38;10450356;28;2696;-47
2023/11/16 00:56:54;;;;;;;;;;;;;;;19.89;41.74;95921.78;10473610;28;2646;-48
2023/11/16 01:01:57;;;;;;;;;;;;;;;19.86;41.71;95917.06;10476076;28;3027;-47
2023/11/16 01:06:57;;;;;;;;;;;;;;;19.84;41.61;95921.81;10468928;28;2688;-49
2023/11/16 01:11:58;;;;;;;;;;;;;;;19.82;41.68;95919.47;10465067;28;4968;-47
2023/11/16 01:17:01;;;;;;;;;;;;;;;19.79;41.75;95916.53;10474281;28;2618;-51
2023/11/16 01:22:01;;;;;;;;;;;;;;;19.76;41.70;95917.09;10454425;28;2555;-51
2023/11/16 01:27:15;;;;;;;;;;;;;;;19.74;41.68;95913.94;10469920;28;2980;-51
2023/11/16 01:32:17;;;;;;;;;;;;;;;19.74;41.76;95921.81;10463254;28;2629;-52
2023/11/16 01:37:17;;;;;;;;;;;;;;;19.71;41.78;95928.38;10474291;28;2565;-50
2023/11/16 01:42:17;;;;;;;;;;;;;;;19.68;41.89;95918.38;10467086;28;2656;-53
2023/11/16 01:47:17;;;;;;;;;;;;;;;19.67;41.86;95916.81;10469663;28;2730;-48
2023/11/16 01:52:18;;;;;;;;;;;;;;;19.65;41.59;95910.25;10469017;28;2596;-50
2023/11/16 01:57:19;;;;;;;;;;;;;;;19.64;41.55;95908.69;10474582;28;2589;-48
2023/11/16 02:02:19;;;;;;;;;;;;;;;19.63;41.55;95907.09;10468374;28;2617;-50
2023/11/16 02:07:19;;;;;;;;;;;;;;;19.61;41.54;95909.19;10466303;28;2637;-51
2023/11/16 02:12:19;;;;;;;;;;;;;;;19.60;41.56;95913.66;10471946;28;5122;-48
2023/11/16 02:17:21;;;;;;;;;;;;;;;19.58;41.55;95910.50;10471434;28;2617;-47
2023/11/16 02:22:24;;;;;;;;;;;;;;;19.56;41.60;95904.72;10471426;28;2656;-51
2023/11/16 02:27:28;;;;;;;;;;;;;;;19.56;41.77;95906.56;10472092;28;2585;-46
2023/11/16 02:32:28;;;;;;;;;;;;;;;19.55;41.57;95905.78;10481425;28;2564;-48
2023/11/16 02:37:28;;;;;;;;;;;;;;;19.51;41.69;95909.19;10469646;28;2608;-51
2023/11/16 02:42:28;;;;;;;;;;;;;;;19.50;41.48;95911.03;10475697;28;2600;-50
2023/11/16 02:47:30;;;;;;;;;;;;;;;19.48;41.60;95897.34;10474979;28;2672;-50
2023/11/16 02:52:31;;;;;;;;;;;;;;;19.47;41.45;95899.19;10472847;28;2607;-50
2023/11/16 02:57:32;;;;;;;;;;;;;;;19.46;41.50;95896.81;10475333;28;2676;-51
2023/11/16 03:02:33;;;;;;;;;;;;;;;19.44;41.44;95898.94;10462437;28;2720;-49
2023/11/16 03:07:33;;;;;;;;;;;;;;;19.44;41.58;95891.84;10474353;28;2628;-50
2023/11/16 03:12:34;;;;;;;;;;;;;;;19.42;41.68;95893.16;10455246;28;5036;-50
2023/11/16 03:17:36;;;;;;;;;;;;;;;19.40;41.58;95893.41;10477954;28;2621;-50
2023/11/16 03:22:37;;;;;;;;;;;;;;;19.39;41.52;95891.06;10475693;28;2578;-48
2023/11/16 03:27:37;;;;;;;;;;;;;;;19.37;41.51;95883.41;10479625;28;2627;-51
2023/11/16 03:32:37;;;;;;;;;;;;;;;19.35;41.54;95884.75;10479896;28;2571;-52
2023/11/16 03:37:37;;;;;;;;;;;;;;;19.35;41.52;95890.00;10476883;28;2630;-51
2023/11/16 03:42:38;;;;;;;;;;;;;;;19.33;41.54;95887.63;10481107;28;2629;-53
2023/11/16 03:47:38;;;;;;;;;;;;;;;19.34;41.54;95888.41;10476819;28;2550;-53
2023/11/16 03:52:38;;;;;;;;;;;;;;;19.33;41.71;95886.81;10473682;28;2715;-51
2023/11/16 03:57:39;;;;;;;;;;;;;;;19.30;41.62;95893.38;10482447;28;2687;-50
2023/11/16 04:02:39;;;;;;;;;;;;;;;19.30;41.36;95888.13;10477361;28;2572;-51
2023/11/16 04:07:39;;;;;;;;;;;;;;;19.29;41.52;95875.22;10469214;28;3758;-50
2023/11/16 04:12:42;;;;;;;;;;;;;;;19.26;41.69;95876.56;10471667;28;5049;-49
2023/11/16 04:17:45;;;;;;;;;;;;;;;19.26;41.65;95873.94;10473863;28;2576;-52
2023/11/16 04:22:45;;;;;;;;;;;;;;;19.25;41.62;95861.03;10465730;28;2552;-51
2023/11/16 04:27:47;;;;;;;;;;;;;;;19.22;41.47;95854.47;10480800;28;2607;-50
2023/11/16 04:32:49;;;;;;;;;;;;;;;19.23;41.63;95848.16;10472204;28;2585;-53
2023/11/16 04:37:50;;;;;;;;;;;;;;;19.22;41.58;95843.97;10471204;28;2612;-52
2023/11/16 04:42:50;;;;;;;;;;;;;;;19.20;41.64;95830.31;10476867;28;2659;-51
2023/11/16 04:47:51;;;;;;;;;;;;;;;19.20;41.64;95821.63;10473846;28;2553;-51
2023/11/16 04:52:51;;;;;;;;;;;;;;;19.17;41.52;95809.78;10474805;28;2560;-52
2023/11/16 04:57:53;;;;;;;;;;;;;;;19.16;41.35;95805.59;10476848;28;2641;-46
2023/11/16 05:02:53;;;;;;;;;;;;;;;19.14;41.70;95784.06;10472286;28;2556;-52
2023/11/16 05:07:53;;;;;;;;;;;;;;;19.16;41.61;95787.22;10452105;28;2664;-52
2023/11/16 05:12:54;;;;;;;;;;;;;;;19.19;41.62;95791.94;10469101;28;5245;-47
2023/11/16 05:17:57;;;;;;;;;;;;;;;19.27;41.76;95783.50;10474147;28;2568;-48
2023/11/16 05:22:57;;;;;;;;;;;;;;;19.37;41.98;95791.41;10472423;28;2674;-48
2023/11/16 05:27:58;;;;;;;;;;;;;;;19.45;41.28;95785.63;10475586;28;2623;-48
2023/11/16 05:32:58;;;;;;;;;;;;;;;19.56;41.86;95780.38;10471717;28;2556;-50
2023/11/16 05:37:58;;;;;;;;;;;;;;;19.64;41.69;95793.75;10469682;28;2603;-50
2023/11/16 05:42:59;;;;;;;;;;;;;;;19.71;41.75;95807.41;10456855;28;2645;-50
2023/11/16 05:47:59;;;;;;;;;;;;;;;19.77;41.69;95798.44;10461022;28;2600;-53
2023/11/16 05:52:59;;;;;;;;;;;;;;;19.83;41.64;95796.59;10468113;28;2537;-51
2023/11/16 05:57:59;;;;;;;;;;;;;;;19.90;41.59;95789.22;10475967;28;2568;-49
2023/11/16 06:03:00;;;;;;;;;;;;;;;19.93;41.57;95786.81;10464456;28;2615;-47
2023/11/16 06:08:00;;;;;;;;;;;;;;;19.99;41.42;95774.47;10478636;28;2679;-49
2023/11/16 06:13:00;;;;;;;;;;;;;;;20.02;41.47;95784.44;10496561;28;5140;-53
2023/11/16 06:18:02;;;;;;;;;;;;;;;20.06;41.47;95767.06;10482314;28;2564;-53
2023/11/16 06:23:02;;;;;;;;;;;;;;;20.10;41.18;95765.47;10478859;28;2776;-51
2023/11/16 06:28:03;;;;;;;;;;;;;;;20.15;41.35;95762.81;10481212;28;2586;-50
2023/11/16 06:33:04;;;;;;;;;;;;;;;20.18;41.02;95764.88;10478245;28;2603;-51
2023/11/16 06:38:09;;;;;;;;;;;;;;;20.19;41.52;95762.03;10476654;28;2646;-53
2023/11/16 06:43:10;;;;;;;;;;;;;;;20.22;41.22;95763.31;10484249;28;2553;-51
2023/11/16 06:48:10;;;;;;;;;;;;;;;20.23;41.34;95764.91;10483770;28;2553;-50
2023/11/16 06:53:11;;;;;;;;;;;;;;;20.24;40.90;95753.31;10469612;28;2639;-50
2023/11/16 06:58:12;;;;;;;;;;;;;;;20.27;40.89;95750.16;10459343;28;2620;-50
2023/11/16 07:03:12;;;;;;;;;;;;;;;20.28;41.02;95741.97;10479122;28;2605;-49
2023/11/16 07:08:12;;;;;;;;;;;;;;;20.30;40.97;95730.41;10474400;28;2639;-49
2023/11/16 07:13:16;;;;;;;;;;;;;;;20.32;41.17;95731.69;10477053;28;5119;-51
2023/11/16 07:18:19;;;;;;;;;;;;;;;20.36;40.81;95711.66;10463101;28;2606;-46
2023/11/16 07:23:20;;;;;;;;;;;;;;;20.34;41.17;95716.41;10468280;28;2653;-50
2023/11/16 07:28:21;;;;;;;;;;;;;;;20.38;40.93;95712.16;10471816;28;2604;-50
2023/11/16 07:33:23;;;;;;;;;;;;;;;20.39;40.83;95718.22;10471033;28;2722;-51
2023/11/16 07:38:23;;;;;;;;;;;;;;;20.40;40.66;95712.69;10471432;28;2588;-49
2023/11/16 07:43:24;;;;;;;;;;;;;;;20.43;40.61;95722.69;10470341;28;2561;-49
2023/11/16 07:48:28;;;;;;;;;;;;;;;20.45;41.10;95703.97;10474567;28;2561;-50
2023/11/16 07:53:29;;;;;;;;;;;;;;;20.47;40.46;95697.38;10468097;28;2596;-50
2023/11/16 07:58:29;;;;;;;;;;;;;;;20.46;40.38;95701.09;10454417;28;2533;-47
2023/11/16 08:03:42;;;;;;;;;;;;;;;20.48;40.09;95688.44;10470189;28;2628;-47
2023/11/16 08:08:42;;;;;;;;;;;;;;;20.49;40.19;95684.72;10457378;28;2619;-47
2023/11/16 08:13:45;;;;;;;;;;;;;;;20.49;40.30;95679.44;10475096;28;5088;-51
2023/11/16 08:18:46;;;;;;;;;;;;;;;20.50;40.44;95675.78;10451700;28;2677;-49
2023/11/16 08:23:48;;;;;;;;;;;;;;;20.47;40.88;95683.41;10466555;28;2647;-50
2023/11/16 08:28:48;;;;;;;;;;;;;;;20.46;40.69;95674.75;10471276;28;2624;-52
2023/11/16 08:33:48;;;;;;;;;;;;;;;20.43;40.96;95667.38;10469919;28;2612;-49
2023/11/16 08:38:50;;;;;;;;;;;;;;;20.43;40.61;95662.13;10464027;28;2592;-46
2023/11/16 08:43:50;;;;;;;;;;;;;;;20.40;41.11;95665.31;10449469;28;2635;-49
2023/11/16 08:48:50;;;;;;;;;;;;;;;20.35;40.88;95665.34;10473020;28;2570;-46
2023/11/16 08:53:55;;;;;;;;;;;;;;;20.35;40.73;95660.06;10475675;28;2941;-47
2023/11/16 08:58:56;;;;;;;;;;;;;;;20.33;40.93;95650.88;10473675;28;2628;-47
2023/11/16 09:03:57;;;;;;;;;;;;;;;20.30;40.87;95643.53;10467273;28;2615;-48
2023/11/16 09:09:08;;;;;;;;;;;;;;;20.28;40.75;95643.78;10466366;28;2648;-48
2023/11/16 09:14:09;;;;;;;;;;;;;;;20.24;40.72;95640.94;10455569;28;5189;-49
2023/11/16 09:19:11;;;;;;;;;;;;;;;20.24;40.91;95634.88;10477182;28;2593;-50
2023/11/16 09:24:11;;;;;;;;;;;;;;;20.20;40.67;95618.06;10468118;28;2797;-48
2023/11/16 09:29:12;;;;;;;;;;;;;;;20.15;41.02;95610.94;10469967;28;2652;-48
2023/11/16 09:34:16;;;;;;;;;;;;;;;20.14;40.97;95612.00;10466941;28;2648;-49
2023/11/16 09:39:16;;;;;;;;;;;;;;;20.14;40.92;95598.06;10471144;28;2952;-54
2023/11/16 09:44:19;;;;;;;;;;;;;;;20.10;41.05;95581.25;10480523;28;2703;-49
2023/11/16 09:49:24;;;;;;;;;;;;;;;20.07;41.22;95581.81;10463570;28;2687;-47
2023/11/16 09:54:28;;;;;;;;;;;;;;;20.04;40.81;95572.63;10474147;28;2636;-49
2023/11/16 09:59:34;;;;;;;;;;;;;;;20.01;41.29;95556.59;10467591;28;2674;-47
2023/11/16 10:04:35;;;;;;;;;;;;;;;19.99;41.18;95558.72;10469297;28;2706;-50
2023/11/16 10:09:41;;;;;;;;;;;;;;;19.98;41.20;95546.63;10484042;28;2801;-48
2023/11/16 10:14:51;;;;;;;;;;;;;;;19.98;41.19;95526.34;10464787;28;2592;-48
2023/11/16 10:19:51;;;;;;;;;;;;;;;19.95;41.39;95512.94;10480343;28;2559;-51
2023/11/16 10:24:51;;;;;;;;;;;;;;;19.97;41.41;95495.06;10462812;28;2677;-49
2023/11/16 10:29:52;;;;;;;;;;;;;;;19.94;41.50;95474.56;10474250;28;2678;-52
2023/11/16 10:34:52;;;;;;;;;;;;;;;19.95;41.61;95476.13;10481224;28;2573;-51
2023/11/16 10:39:52;;;;;;;;;;;;;;;19.96;41.62;95449.56;10482369;28;2598;-51
2023/11/16 10:44:52;;;;;;;;;;;;;;;19.93;42.15;95444.84;10476444;28;2582;-48
2023/11/16 10:49:53;;;;;;;;;;;;;;;19.94;41.75;95443.00;10471824;28;2625;-50
2023/11/16 10:54:54;;;;;;;;;;;;;;;19.89;41.91;95422.78;10482123;28;2580;-48
2023/11/16 10:59:56;;;;;;;;;;;;;;;19.87;41.58;95409.13;10479981;28;2604;-47
2023/11/16 11:04:56;;;;;;;;;;;;;;;19.82;41.70;95398.66;10457355;28;2529;-49
2023/11/16 11:09:56;;;;;;;;;;;;;;;19.83;42.02;95391.53;10471209;28;2628;-47
2023/11/16 11:14:57;;;;;;;;;;;;;;;19.81;41.74;95377.88;10469080;28;5101;-46
2023/11/16 11:19:58;;;;;;;;;;;;;;;19.78;42.16;95360.03;10469024;28;2589;-50
2023/11/16 11:24:58;;;;;;;;;;;;;;;19.76;42.07;95343.75;10474247;28;2628;-50
2023/11/16 11:30:11;;;;;;;;;;;;;;;19.76;41.83;95334.00;10471170;28;2689;-47
2023/11/16 11:35:12;;;;;;;;;;;;;;;19.76;42.17;95310.34;10470379;28;2582;-49
2023/11/16 11:40:14;;;;;;;;;;;;;;;19.74;41.97;95294.03;10468430;28;2699;-50
2023/11/16 11:45:14;;;;;;;;;;;;;;;19.78;42.33;95268.78;10476291;28;2579;-47
2023/11/16 11:50:16;;;;;;;;;;;;;;;19.74;43.42;95240.69;10474807;28;2672;-52
2023/11/16 11:55:19;;;;;;;;;;;;;;;19.80;44.00;95226.41;10470074;28;2661;-52
2023/11/16 12:00:22;;;;;;;;;;;;;;;19.78;44.62;95215.38;10456065;28;2576;-50
2023/11/16 12:05:22;;;;;;;;;;;;;;;19.82;44.39;95196.13;10467188;28;2593;-49
2023/11/16 12:10:23;;;;;;;;;;;;;;;19.80;44.83;95182.50;10472393;28;2592;-51
2023/11/16 12:15:23;;;;;;;;;;;;;;;19.81;46.72;95165.63;10489759;28;5245;-50
2023/11/16 12:20:24;;;;;;;;;;;;;;;19.83;45.54;95145.09;10466091;28;2597;-58
2023/11/16 12:25:24;;;;;;;;;;;;;;;19.77;45.40;95129.66;10454902;28;2541;-53
2023/11/16 12:30:24;;;;;;;;;;;;;;;19.77;45.26;95114.66;10439641;28;2548;-52
2023/11/16 12:35:28;;;;;;;;;;;;;;;19.77;45.04;95096.25;10471112;28;2643;-52
2023/11/16 12:40:28;;;;;;;;;;;;;;;19.77;45.11;95074.44;10475949;28;2597;-50
2023/11/16 12:45:30;;;;;;;;;;;;;;;19.75;45.86;95056.31;10473794;28;2608;-50
2023/11/16 12:50:31;;;;;;;;;;;;;;;19.74;45.33;95040.81;10467495;28;2698;-51
2023/11/16 12:55:31;;;;;;;;;;;;;;;19.72;44.91;95045.59;10464003;28;2731;-51
2023/11/16 13:00:31;;;;;;;;;;;;;;;19.67;44.78;94996.47;10455447;28;2633;-51
2023/11/16 13:05:34;;;;;;;;;;;;;;;19.66;44.38;94997.53;10466720;28;2552;-52
2023/11/16 13:10:34;;;;;;;;;;;;;;;19.65;44.51;94969.69;10466712;28;2601;-52
2023/11/16 13:15:36;;;;;;;;;;;;;;;19.62;44.58;94941.34;10471608;28;2563;-50
2023/11/16 13:20:36;;;;;;;;;;;;;;;19.61;44.14;94924.00;10477463;28;2580;-52
2023/11/16 13:25:37;;;;;;;;;;;;;;;19.60;44.10;94953.22;10473950;28;2606;-51
2023/11/16 13:30:38;;;;;;;;;;;;;;;19.57;44.37;94951.16;10470949;28;2592;-50
2023/11/16 13:35:39;;;;;;;;;;;;;;;19.56;44.23;94947.72;10470614;28;2544;-51
2023/11/16 13:40:39;;;;;;;;;;;;;;;19.57;43.95;94940.63;10462141;28;2652;-55
2023/11/16 13:45:39;;;;;;;;;;;;;;;19.54;44.17;94962.25;10466189;28;2602;-51
2023/11/16 13:50:41;;;;;;;;;;;;;;;19.52;43.94;94954.63;10472338;28;2704;-52
2023/11/16 13:55:41;;;;;;;;;;;;;;;19.50;43.94;94941.00;10472826;28;2625;-51
2023/11/16 14:00:42;;;;;;;;;;;;;;;19.48;43.87;94978.09;10458795;28;2691;-48
2023/11/16 14:05:42;;;;;;;;;;;;;;;19.47;43.77;94994.91;10468109;28;2598;-51
2023/11/16 14:10:42;;;;;;;;;;;;;;;19.46;43.67;95005.72;10466046;28;2540;-54
2023/11/16 14:15:43;;;;;;;;;;;;;;;19.44;43.53;95042.81;10470543;28;5117;-49
2023/11/16 14:20:43;;;;;;;;;;;;;;;19.42;43.57;95063.31;10469680;28;2571;-48
2023/11/16 14:25:43;;;;;;;;;;;;;;;19.40;43.67;95062.81;10469279;28;2597;-54
2023/11/16 14:30:43;;;;;;;;;;;;;;;19.38;43.89;95070.22;10475117;28;2661;-54
2023/11/16 14:35:44;;;;;;;;;;;;;;;19.37;43.63;95084.41;10469716;28;3017;-52
2023/11/16 14:40:44;;;;;;;;;;;;;;;19.39;43.59;95090.16;10482686;28;2612;-52
2023/11/16 14:45:45;;;;;;;;;;;;;;;19.43;44.16;95093.78;10474711;28;2619;-51
2023/11/16 14:50:46;;;;;;;;;;;;;;;19.51;44.17;95070.56;10485583;28;2592;-49
2023/11/16 14:55:47;;;;;;;;;;;;;;;19.56;43.99;95087.06;10472556;28;3052;-50
2023/11/16 15:00:47;;;;;;;;;;;;;;;19.63;43.92;95094.59;10459209;28;2639;-50
2023/11/16 15:05:47;;;;;;;;;;;;;;;19.67;43.92;95087.72;10475453;28;2659;-48
2023/11/16 15:10:47;;;;;;;;;;;;;;;19.74;43.82;95065.25;10471704;28;2643;-51
2023/11/16 15:15:48;;;;;;;;;;;;;;;19.77;43.72;95056.03;10480461;28;2763;-50
2023/11/16 15:20:49;;;;;;;;;;;;;;;19.79;44.08;95075.72;10475325;28;2629;-52
2023/11/16 15:25:49;;;;;;;;;;;;;;;19.85;44.35;95085.09;10478183;28;2701;-52
2023/11/16 15:30:52;;;;;;;;;;;;;;;19.88;43.53;95087.16;10459860;28;2782;-52
2023/11/16 15:35:55;;;;;;;;;;;;;;;19.95;43.52;95065.75;10471292;28;2653;-53
2023/11/16 15:40:55;;;;;;;;;;;;;;;19.96;42.83;95047.06;10481070;28;2734;-54
2023/11/16 15:45:55;;;;;;;;;;;;;;;19.96;43.02;95033.91;10476589;28;2692;-53
2023/11/16 15:50:56;;;;;;;;;;;;;;;20.01;43.16;95022.53;10475792;28;2605;-53
2023/11/16 15:55:57;;;;;;;;;;;;;;;20.03;42.85;94996.72;10457571;28;2658;-53
2023/11/16 16:00:59;;;;;;;;;;;;;;;20.04;42.92;94990.38;10477215;28;2629;-52
2023/11/16 16:06:03;;;;;;;;;;;;;;;20.05;42.52;94995.34;10482824;28;2988;-51
2023/11/16 16:11:03;;;;;;;;;;;;;;;20.07;42.72;94995.09;10476411;28;2586;-50
2023/11/16 16:16:05;;;;;;;;;;;;;;;20.11;41.92;94982.91;10468555;28;5252;-49
2023/11/16 16:21:07;;;;;;;;;;;;;;;20.11;42.51;94961.88;10466125;28;2696;-52
2023/11/16 16:26:10;;;;;;;;;;;;;;;20.13;42.68;94952.59;10476602;28;2648;-50
2023/11/16 16:31:21;;;;;;;;;;;;;;;20.17;41.87;94958.84;10472602;28;2568;-52
2023/11/16 16:36:21;;;;;;;;;;;;;;;20.19;42.57;94933.06;10470420;28;2541;-54
2023/11/16 16:41:23;;;;;;;;;;;;;;;20.23;42.55;94891.16;10477614;28;2613;-54
2023/11/16 16:46:24;;;;;;;;;;;;;;;20.30;42.03;94864.47;10480432;28;2562;-54
2023/11/16 16:51:25;;;;;;;;;;;;;;;20.31;41.94;94840.47;10469655;28;2687;-51
2023/11/16 16:56:27;;;;;;;;;;;;;;;20.38;41.53;94827.69;10461551;28;2756;-52
2023/11/16 17:01:27;;;;;;;;;;;;;;;20.43;41.51;94821.53;10473001;28;2568;-52
2023/11/16 17:06:28;;;;;;;;;;;;;;;20.47;41.50;94799.59;10466733;28;2650;-54
2023/11/16 17:11:28;;;;;;;;;;;;;;;20.53;41.37;94790.53;10464899;28;2558;-53
2023/11/16 17:16:29;;;;;;;;;;;;;;;20.57;41.04;94807.28;10464039;28;5092;-48
2023/11/16 17:21:30;;;;;;;;;;;;;;;20.60;41.30;94796.19;10472462;28;2598;-53
2023/11/16 17:26:30;;;;;;;;;;;;;;;20.64;41.09;94770.81;10466819;28;2597;-53
2023/11/16 17:31:33;;;;;;;;;;;;;;;20.69;40.96;94768.03;10466472;28;2557;-53
2023/11/16 17:36:33;;;;;;;;;;;;;;;20.72;41.06;94766.69;10471045;28;2545;-53
2023/11/16 17:41:34;;;;;;;;;;;;;;;20.77;40.49;94759.44;10475871;28;2716;-48
2023/11/16 17:46:34;;;;;;;;;;;;;;;20.78;40.89;94742.56;10456932;28;2653;-52
2023/11/16 17:51:36;;;;;;;;;;;;;;;20.78;40.86;94739.94;10462057;28;2755;-50
2023/11/16 17:56:36;;;;;;;;;;;;;;;20.81;40.70;94751.72;10469875;28;2740;-50
2023/11/16 18:01:38;;;;;;;;;;;;;;;20.84;40.46;94744.00;10465333;28;2798;-52
2023/11/16 18:06:38;;;;;;;;;;;;;;;20.87;40.31;94722.34;10472902;28;2544;-51
2023/11/16 18:11:38;;;;;;;;;;;;;;;20.88;40.25;94707.31;10476501;28;2617;-53
2023/11/16 18:16:39;;;;;;;;;;;;;;;20.89;40.29;94722.03;10468591;28;5027;-51
2023/11/16 18:21:39;;;;;;;;;;;;;;;20.88;40.21;94718.63;10477306;28;2571;-50
2023/11/16 18:26:40;;;;;;;;;;;;;;;20.91;40.29;94723.31;10472607;28;2642;-50
2023/11/16 18:31:40;;;;;;;;;;;;;;;20.94;40.18;94711.38;10474844;28;2709;-54
2023/11/16 18:36:40;;;;;;;;;;;;;;;21.00;40.08;94707.53;10473135;28;2711;-52
2023/11/16 18:41:41;;;;;;;;;;;;;;;21.01;40.50;94709.09;10479330;28;2593;-53
2023/11/16 18:46:41;;;;;;;;;;;;;;;21.03;39.99;94686.69;10474912;28;3015;-53
2023/11/16 18:51:42;;;;;;;;;;;;;;;21.04;40.21;94675.03;10462907;28;2592;-52
2023/11/16 18:56:42;;;;;;;;;;;;;;;21.14;40.20;94662.72;10486503;28;2579;-48
2023/11/16 19:01:42;;;;;;;;;;;;;;;21.16;40.00;94663.19;10464465;28;2714;-52
2023/11/16 19:06:43;;;;;;;;;;;;;;;21.23;40.20;94639.78;10484145;28;2606;-51
2023/11/16 19:11:43;;;;;;;;;;;;;;;21.21;39.95;94652.50;10481769;28;2721;-55
2023/11/16 19:16:45;;;;;;;;;;;;;;;21.25;39.71;94653.44;10471198;28;5022;-54
2023/11/16 19:21:45;;;;;;;;;;;;;;;21.20;39.50;94648.31;10461411;28;2570;-53
2023/11/16 19:26:46;;;;;;;;;;;;;;;21.22;39.96;94648.78;10479132;28;2683;-53
2023/11/16 19:31:47;;;;;;;;;;;;;;;21.22;40.07;94617.94;10479646;28;2620;-52
2023/11/16 19:36:47;;;;;;;;;;;;;;;21.25;39.41;94596.25;10479374;28;2615;-52
2023/11/16 19:41:48;;;;;;;;;;;;;;;21.22;39.59;94602.13;10475646;28;2641;-54
2023/11/16 19:46:51;;;;;;;;;;;;;;;21.25;39.55;94571.75;10477768;28;2615;-52
2023/11/16 19:51:54;;;;;;;;;;;;;;;21.28;39.44;94569.28;10475758;28;2687;-52
2023/11/16 19:56:54;;;;;;;;;;;;;;;21.30;39.52;94585.56;10474746;28;2553;-55
2023/11/16 20:01:54;;;;;;;;;;;;;;;21.24;39.62;94563.06;10471770;28;2845;-52
2023/11/16 20:06:55;;;;;;;;;;;;;;;21.28;39.56;94552.69;10457077;28;2823;-53
2023/11/16 20:11:56;;;;;;;;;;;;;;;21.28;39.85;94542.94;10476351;28;2587;-54
2023/11/16 20:16:57;;;;;;;;;;;;;;;21.30;39.80;94545.25;10458947;28;2615;-54
2023/11/16 20:21:57;;;;;;;;;;;;;;;21.29;39.51;94544.47;10452178;28;2779;-55
2023/11/16 20:26:57;;;;;;;;;;;;;;;21.28;39.71;94519.22;10473513;28;2665;-52
2023/11/16 20:31:58;;;;;;;;;;;;;;;21.29;39.73;94530.53;10452121;28;2702;-53
2023/11/16 20:36:59;;;;;;;;;;;;;;;21.32;39.41;94529.91;10456635;28;2661;-55
2023/11/16 20:41:59;;;;;;;;;;;;;;;21.31;39.71;94509.91;10480038;28;2893;-54
2023/11/16 20:46:59;;;;;;;;;;;;;;;21.34;39.53;94504.03;10477440;28;2588;-54
2023/11/16 20:51:59;;;;;;;;;;;;;;;21.27;39.58;94487.91;10469261;28;2711;-57
2023/11/16 20:57:00;;;;;;;;;;;;;;;21.26;39.16;94486.34;10468386;28;2582;-52
2023/11/16 21:02:00;;;;;;;;;;;;;;;21.27;39.82;94480.00;10469665;28;2606;-54
2023/11/16 21:07:01;;;;;;;;;;;;;;;21.23;40.25;94465.84;10468561;28;1426;-55
2023/11/16 21:12:01;;;;;;;;;;;;;;;21.24;40.00;94467.41;10476179;28;5118;-56
2023/11/16 21:17:04;;;;;;;;;;;;;;;21.20;40.63;94454.09;10476726;28;2543;-55
2023/11/16 21:22:05;;;;;;;;;;;;;;;21.20;40.63;94440.91;10456570;28;1549;-56
2023/11/16 21:27:05;;;;;;;;;;;;;;;21.16;40.68;94439.19;10476412;28;1586;-55
2023/11/16 21:32:05;;;;;;;;;;;;;;;21.18;40.51;94421.22;10461080;28;1664;-55
2023/11/16 21:37:06;;;;;;;;;;;;;;;21.16;40.57;94436.56;10470558;28;1905;-53
2023/11/16 21:42:06;;;;;;;;;;;;;;;21.18;41.17;94431.75;10482930;28;1612;-55
2023/11/16 21:47:07;;;;;;;;;;;;;;;21.12;40.73;94438.25;10475084;28;1593;-52
2023/11/16 21:52:07;;;;;;;;;;;;;;;21.11;40.81;94447.22;10456871;28;1522;-56
2023/11/16 21:57:07;;;;;;;;;;;;;;;21.06;40.66;94450.81;10472158;28;2046;-54
2023/11/16 22:02:07;;;;;;;;;;;;;;;21.05;41.29;94455.31;10474641;28;1590;-56
2023/11/16 22:07:08;;;;;;;;;;;;;;;21.05;41.44;94457.94;10460577;28;1416;-54
2023/11/16 22:12:08;;;;;;;;;;;;;;;21.05;41.88;94452.66;10474298;28;5300;-55
2023/11/16 22:17:08;;;;;;;;;;;;;;;21.04;42.29;94479.31;10473563;28;2667;-54
2023/11/16 22:22:09;;;;;;;;;;;;;;;21.02;42.65;94507.81;10473434;28;2620;-55
2023/11/16 22:27:09;;;;;;;;;;;;;;;20.96;42.80;94499.25;10470882;28;2632;-54
2023/11/16 22:32:09;;;;;;;;;;;;;;;20.88;42.66;94502.63;10477355;28;2706;-54
2023/11/16 22:37:13;;;;;;;;;;;;;;;20.85;42.53;94502.47;10468693;28;2666;-54
2023/11/16 22:42:13;;;;;;;;;;;;;;;20.81;42.67;94485.72;10476630;28;2561;-54
2023/11/16 22:47:13;;;;;;;;;;;;;;;20.73;42.97;94495.13;10475575;28;2592;-55
2023/11/16 22:52:14;;;;;;;;;;;;;;;20.71;43.34;94491.28;10482107;28;2613;-54
2023/11/16 22:57:14;;;;;;;;;;;;;;;20.66;42.75;94489.53;10488835;28;2561;-54
2023/11/16 23:02:14;;;;;;;;;;;;;;;20.60;43.07;94488.13;10478771;28;2620;-56
2023/11/16 23:07:15;;;;;;;;;;;;;;;20.56;43.33;94481.13;10471348;28;2588;-55
2023/11/16 23:12:15;;;;;;;;;;;;;;;20.49;43.44;94465.75;10463287;28;5329;-53
2023/11/16 23:17:17;;;;;;;;;;;;;;;20.47;43.30;94470.56;10488466;28;2669;-52
2023/11/16 23:22:17;;;;;;;;;;;;;;;20.42;43.52;94457.53;10478895;28;2552;-55
2023/11/16 23:27:18;;;;;;;;;;;;;;;20.39;43.46;94452.88;10481872;28;2555;-56
2023/11/16 23:32:18;;;;;;;;;;;;;;;20.35;43.71;94446.66;10478293;28;2663;-56
2023/11/16 23:37:21;;;;;;;;;;;;;;;20.35;43.19;94425.59;10482930;28;2739;-56
2023/11/16 23:42:22;;;;;;;;;;;;;;;20.31;43.17;94418.63;10476916;28;2551;-56
2023/11/16 23:47:22;;;;;;;;;;;;;;;20.28;43.16;94436.56;10465515;28;2617;-56
2023/11/16 23:52:23;;;;;;;;;;;;;;;20.25;43.07;94421.41;10463049;28;2692;-54
2023/11/16 23:57:23;;;;;;;;;;;;;;;20.22;43.12;94400.94;10482344;28;2541;-56
